sensor_id;sensor_type;location;lat;lon;timestamp;P1;durP1;ratioP1;P2;durP2;ratioP2
2850;SDS011;1433;49.976;8.342;2023-04-29T00:01:27;3.97;;;3.57;;
2850;SDS011;1433;49.976;8.342;2023-04-29T00:03:53;10.07;;;6.20;;
2850;SDS011;1433;49.976;8.342;2023-04-29T00:06:19;7.57;;;4.20;;
2850;SDS011;1433;49.976;8.342;2023-04-29T00:08:46;5.20;;;4.00;;
2850;SDS011;1433;49.976;8.342;2023-04-29T00:11:12;7.10;;;4.50;;
2850;SDS011;1433;49.976;8.342;2023-04-29T00:13:38;7.20;;;6.40;;
2850;SDS011;1433;49.976;8.342;2023-04-29T00:16:05;4.97;;;4.50;;
2850;SDS011;1433;49.976;8.342;2023-04-29T00:18:32;3.50;;;3.20;;
2850;SDS011;1433;49.976;8.342;2023-04-29T00:20:59;6.47;;;3.63;;
2850;SDS011;1433;49.976;8.342;2023-04-29T00:23:25;11.17;;;5.40;;
2850;SDS011;1433;49.976;8.342;2023-04-29T00:25:51;10.43;;;4.90;;
2850;SDS011;1433;49.976;8.342;2023-04-29T00:28:18;6.83;;;5.10;;
2850;SDS011;1433;49.976;8.342;2023-04-29T00:30:44;9.40;;;4.83;;
2850;SDS011;1433;49.976;8.342;2023-04-29T00:33:11;9.67;;;4.30;;
2850;SDS011;1433;49.976;8.342;2023-04-29T00:35:37;5.67;;;4.70;;
2850;SDS011;1433;49.976;8.342;2023-04-29T00:38:03;5.60;;;3.80;;
2850;SDS011;1433;49.976;8.342;2023-04-29T00:40:29;8.87;;;4.40;;
2850;SDS011;1433;49.976;8.342;2023-04-29T00:42:56;3.70;;;2.77;;
2850;SDS011;1433;49.976;8.342;2023-04-29T00:45:22;3.40;;;3.10;;
2850;SDS011;1433;49.976;8.342;2023-04-29T00:47:49;3.47;;;3.10;;
2850;SDS011;1433;49.976;8.342;2023-04-29T00:50:15;5.10;;;3.53;;
2850;SDS011;1433;49.976;8.342;2023-04-29T00:52:41;3.80;;;3.40;;
2850;SDS011;1433;49.976;8.342;2023-04-29T00:55:08;3.73;;;3.43;;
2850;SDS011;1433;49.976;8.342;2023-04-29T00:57:37;3.70;;;3.40;;
2850;SDS011;1433;49.976;8.342;2023-04-29T01:00:04;3.87;;;3.47;;
2850;SDS011;1433;49.976;8.342;2023-04-29T01:02:31;3.13;;;2.83;;
2850;SDS011;1433;49.976;8.342;2023-04-29T01:04:58;3.57;;;3.23;;
2850;SDS011;1433;49.976;8.342;2023-04-29T01:07:36;2.57;;;2.37;;
2850;SDS011;1433;49.976;8.342;2023-04-29T01:10:28;2.50;;;2.30;;
2850;SDS011;1433;49.976;8.342;2023-04-29T01:15:58;3.40;;;3.10;;
2850;SDS011;1433;49.976;8.342;2023-04-29T01:18:45;2.80;;;2.60;;
2850;SDS011;1433;49.976;8.342;2023-04-29T01:21:16;2.67;;;2.47;;
2850;SDS011;1433;49.976;8.342;2023-04-29T01:23:43;3.33;;;2.70;;
2850;SDS011;1433;49.976;8.342;2023-04-29T01:26:11;3.40;;;3.10;;
2850;SDS011;1433;49.976;8.342;2023-04-29T01:32:12;3.03;;;2.83;;
2850;SDS011;1433;49.976;8.342;2023-04-29T01:39:25;3.77;;;3.17;;
2850;SDS011;1433;49.976;8.342;2023-04-29T01:42:14;3.63;;;3.33;;
2850;SDS011;1433;49.976;8.342;2023-04-29T01:44:37;4.00;;;3.43;;
2850;SDS011;1433;49.976;8.342;2023-04-29T01:47:06;4.33;;;3.07;;
2850;SDS011;1433;49.976;8.342;2023-04-29T01:49:38;5.93;;;3.47;;
2850;SDS011;1433;49.976;8.342;2023-04-29T01:52:04;4.07;;;3.17;;
2850;SDS011;1433;49.976;8.342;2023-04-29T01:54:32;4.43;;;2.60;;
2850;SDS011;1433;49.976;8.342;2023-04-29T01:57:02;3.40;;;3.03;;
2850;SDS011;1433;49.976;8.342;2023-04-29T01:59:30;2.50;;;2.30;;
2850;SDS011;1433;49.976;8.342;2023-04-29T02:02:10;2.97;;;2.63;;
2850;SDS011;1433;49.976;8.342;2023-04-29T02:04:38;3.10;;;2.83;;
2850;SDS011;1433;49.976;8.342;2023-04-29T02:07:05;4.63;;;2.77;;
2850;SDS011;1433;49.976;8.342;2023-04-29T02:09:32;3.70;;;3.00;;
2850;SDS011;1433;49.976;8.342;2023-04-29T02:12:00;5.97;;;3.20;;
2850;SDS011;1433;49.976;8.342;2023-04-29T02:14:28;2.50;;;2.30;;
2850;SDS011;1433;49.976;8.342;2023-04-29T02:16:55;3.00;;;2.80;;
2850;SDS011;1433;49.976;8.342;2023-04-29T02:19:22;4.30;;;2.17;;
2850;SDS011;1433;49.976;8.342;2023-04-29T02:21:50;3.17;;;2.37;;
2850;SDS011;1433;49.976;8.342;2023-04-29T02:24:17;2.87;;;2.60;;
2850;SDS011;1433;49.976;8.342;2023-04-29T02:26:45;5.07;;;3.00;;
2850;SDS011;1433;49.976;8.342;2023-04-29T02:29:11;3.33;;;3.00;;
2850;SDS011;1433;49.976;8.342;2023-04-29T02:31:37;4.47;;;4.07;;
2850;SDS011;1433;49.976;8.342;2023-04-29T02:34:03;3.87;;;3.17;;
2850;SDS011;1433;49.976;8.342;2023-04-29T02:36:30;4.10;;;2.90;;
2850;SDS011;1433;49.976;8.342;2023-04-29T02:38:56;3.00;;;2.80;;
2850;SDS011;1433;49.976;8.342;2023-04-29T02:41:23;3.77;;;3.00;;
2850;SDS011;1433;49.976;8.342;2023-04-29T02:43:50;3.37;;;3.07;;
2850;SDS011;1433;49.976;8.342;2023-04-29T02:46:16;3.93;;;3.20;;
2850;SDS011;1433;49.976;8.342;2023-04-29T02:48:43;3.20;;;2.90;;
2850;SDS011;1433;49.976;8.342;2023-04-29T02:51:10;6.40;;;4.60;;
2850;SDS011;1433;49.976;8.342;2023-04-29T02:53:36;6.90;;;4.90;;
2850;SDS011;1433;49.976;8.342;2023-04-29T02:56:03;9.57;;;6.10;;
2850;SDS011;1433;49.976;8.342;2023-04-29T02:58:30;10.40;;;4.90;;
2850;SDS011;1433;49.976;8.342;2023-04-29T03:00:56;4.63;;;3.60;;
2850;SDS011;1433;49.976;8.342;2023-04-29T03:03:22;5.13;;;3.87;;
2850;SDS011;1433;49.976;8.342;2023-04-29T03:05:49;4.83;;;3.53;;
2850;SDS011;1433;49.976;8.342;2023-04-29T03:08:15;4.87;;;3.70;;
2850;SDS011;1433;49.976;8.342;2023-04-29T03:10:41;3.60;;;2.97;;
2850;SDS011;1433;49.976;8.342;2023-04-29T03:13:07;4.50;;;2.83;;
2850;SDS011;1433;49.976;8.342;2023-04-29T03:15:34;6.83;;;2.93;;
2850;SDS011;1433;49.976;8.342;2023-04-29T03:18:01;4.00;;;2.00;;
2850;SDS011;1433;49.976;8.342;2023-04-29T03:20:29;3.53;;;2.57;;
2850;SDS011;1433;49.976;8.342;2023-04-29T03:22:55;1.63;;;1.53;;
2850;SDS011;1433;49.976;8.342;2023-04-29T03:25:21;2.43;;;2.23;;
2850;SDS011;1433;49.976;8.342;2023-04-29T03:27:49;1.70;;;1.50;;
2850;SDS011;1433;49.976;8.342;2023-04-29T03:30:15;6.57;;;3.17;;
2850;SDS011;1433;49.976;8.342;2023-04-29T03:32:44;3.93;;;2.60;;
2850;SDS011;1433;49.976;8.342;2023-04-29T03:35:10;3.77;;;2.07;;
2850;SDS011;1433;49.976;8.342;2023-04-29T03:37:39;5.50;;;2.80;;
2850;SDS011;1433;49.976;8.342;2023-04-29T03:40:15;4.20;;;2.30;;
2850;SDS011;1433;49.976;8.342;2023-04-29T03:42:41;3.47;;;2.53;;
2850;SDS011;1433;49.976;8.342;2023-04-29T03:45:08;2.37;;;2.10;;
2850;SDS011;1433;49.976;8.342;2023-04-29T03:47:37;4.43;;;3.27;;
2850;SDS011;1433;49.976;8.342;2023-04-29T03:50:04;2.93;;;2.03;;
2850;SDS011;1433;49.976;8.342;2023-04-29T03:52:31;2.67;;;2.47;;
2850;SDS011;1433;49.976;8.342;2023-04-29T03:54:59;3.30;;;3.00;;
2850;SDS011;1433;49.976;8.342;2023-04-29T03:57:27;2.93;;;2.70;;
2850;SDS011;1433;49.976;8.342;2023-04-29T03:59:53;4.03;;;3.37;;
2850;SDS011;1433;49.976;8.342;2023-04-29T04:02:20;3.97;;;3.63;;
2850;SDS011;1433;49.976;8.342;2023-04-29T04:04:47;6.77;;;5.23;;
2850;SDS011;1433;49.976;8.342;2023-04-29T04:07:13;7.33;;;5.40;;
2850;SDS011;1433;49.976;8.342;2023-04-29T04:09:41;6.10;;;5.50;;
2850;SDS011;1433;49.976;8.342;2023-04-29T04:12:08;8.80;;;5.90;;
2850;SDS011;1433;49.976;8.342;2023-04-29T04:14:34;7.20;;;6.10;;
2850;SDS011;1433;49.976;8.342;2023-04-29T04:17:00;7.17;;;5.83;;
2850;SDS011;1433;49.976;8.342;2023-04-29T04:19:28;8.27;;;7.40;;
2850;SDS011;1433;49.976;8.342;2023-04-29T04:21:55;9.00;;;7.33;;
2850;SDS011;1433;49.976;8.342;2023-04-29T04:24:22;9.23;;;6.40;;
2850;SDS011;1433;49.976;8.342;2023-04-29T04:26:48;7.30;;;6.00;;
2850;SDS011;1433;49.976;8.342;2023-04-29T04:29:16;7.50;;;6.73;;
2850;SDS011;1433;49.976;8.342;2023-04-29T04:31:44;8.40;;;6.10;;
2850;SDS011;1433;49.976;8.342;2023-04-29T04:34:11;8.00;;;5.77;;
2850;SDS011;1433;49.976;8.342;2023-04-29T04:36:37;8.30;;;6.97;;
2850;SDS011;1433;49.976;8.342;2023-04-29T04:39:03;8.97;;;7.70;;
2850;SDS011;1433;49.976;8.342;2023-04-29T04:41:31;7.90;;;6.53;;
2850;SDS011;1433;49.976;8.342;2023-04-29T04:43:57;10.33;;;7.00;;
2850;SDS011;1433;49.976;8.342;2023-04-29T04:46:28;9.13;;;6.50;;
2850;SDS011;1433;49.976;8.342;2023-04-29T04:48:59;8.50;;;7.33;;
2850;SDS011;1433;49.976;8.342;2023-04-29T04:51:26;6.50;;;5.80;;
2850;SDS011;1433;49.976;8.342;2023-04-29T04:53:53;9.33;;;7.30;;
2850;SDS011;1433;49.976;8.342;2023-04-29T04:56:21;8.03;;;7.20;;
2850;SDS011;1433;49.976;8.342;2023-04-29T04:58:48;8.67;;;7.27;;
2850;SDS011;1433;49.976;8.342;2023-04-29T05:01:14;9.33;;;8.17;;
2850;SDS011;1433;49.976;8.342;2023-04-29T05:03:40;8.37;;;7.23;;
2850;SDS011;1433;49.976;8.342;2023-04-29T05:06:07;9.50;;;6.80;;
2850;SDS011;1433;49.976;8.342;2023-04-29T05:08:33;8.50;;;7.67;;
2850;SDS011;1433;49.976;8.342;2023-04-29T05:11:00;9.97;;;7.40;;
2850;SDS011;1433;49.976;8.342;2023-04-29T05:13:26;9.00;;;7.50;;
2850;SDS011;1433;49.976;8.342;2023-04-29T05:15:53;10.90;;;7.60;;
2850;SDS011;1433;49.976;8.342;2023-04-29T05:18:21;9.27;;;6.87;;
2850;SDS011;1433;49.976;8.342;2023-04-29T05:20:49;9.87;;;7.57;;
2850;SDS011;1433;49.976;8.342;2023-04-29T05:23:15;9.03;;;7.47;;
2850;SDS011;1433;49.976;8.342;2023-04-29T05:25:42;10.27;;;8.60;;
2850;SDS011;1433;49.976;8.342;2023-04-29T05:28:08;11.20;;;8.47;;
2850;SDS011;1433;49.976;8.342;2023-04-29T05:30:36;11.77;;;8.00;;
2850;SDS011;1433;49.976;8.342;2023-04-29T05:33:02;11.20;;;7.90;;
2850;SDS011;1433;49.976;8.342;2023-04-29T05:35:29;9.60;;;7.50;;
2850;SDS011;1433;49.976;8.342;2023-04-29T05:37:56;13.37;;;8.20;;
2850;SDS011;1433;49.976;8.342;2023-04-29T05:40:24;9.20;;;6.40;;
2850;SDS011;1433;49.976;8.342;2023-04-29T05:42:52;11.10;;;6.87;;
2850;SDS011;1433;49.976;8.342;2023-04-29T05:45:19;10.57;;;7.40;;
2850;SDS011;1433;49.976;8.342;2023-04-29T05:47:47;9.00;;;5.97;;
2850;SDS011;1433;49.976;8.342;2023-04-29T05:50:13;8.30;;;5.17;;
2850;SDS011;1433;49.976;8.342;2023-04-29T05:52:40;8.67;;;6.73;;
2850;SDS011;1433;49.976;8.342;2023-04-29T05:55:06;10.70;;;6.30;;
2850;SDS011;1433;49.976;8.342;2023-04-29T05:57:33;9.27;;;6.43;;
2850;SDS011;1433;49.976;8.342;2023-04-29T05:59:59;7.27;;;5.87;;
2850;SDS011;1433;49.976;8.342;2023-04-29T06:02:26;7.17;;;5.30;;
2850;SDS011;1433;49.976;8.342;2023-04-29T06:04:52;6.63;;;5.53;;
2850;SDS011;1433;49.976;8.342;2023-04-29T06:07:29;9.20;;;4.60;;
2850;SDS011;1433;49.976;8.342;2023-04-29T06:10:00;9.00;;;5.23;;
2850;SDS011;1433;49.976;8.342;2023-04-29T06:12:26;6.67;;;5.17;;
2850;SDS011;1433;49.976;8.342;2023-04-29T06:14:53;6.60;;;4.50;;
2850;SDS011;1433;49.976;8.342;2023-04-29T06:17:19;6.40;;;4.87;;
2850;SDS011;1433;49.976;8.342;2023-04-29T06:19:46;7.53;;;4.53;;
2850;SDS011;1433;49.976;8.342;2023-04-29T06:22:12;4.67;;;3.80;;
2850;SDS011;1433;49.976;8.342;2023-04-29T06:24:40;6.17;;;4.20;;
2850;SDS011;1433;49.976;8.342;2023-04-29T06:27:07;5.03;;;4.53;;
2850;SDS011;1433;49.976;8.342;2023-04-29T06:29:33;7.00;;;4.60;;
2850;SDS011;1433;49.976;8.342;2023-04-29T06:32:01;5.97;;;4.10;;
2850;SDS011;1433;49.976;8.342;2023-04-29T06:34:27;7.70;;;4.10;;
2850;SDS011;1433;49.976;8.342;2023-04-29T06:37:01;5.10;;;4.60;;
2850;SDS011;1433;49.976;8.342;2023-04-29T06:39:32;4.70;;;3.67;;
2850;SDS011;1433;49.976;8.342;2023-04-29T06:42:00;4.20;;;3.47;;
2850;SDS011;1433;49.976;8.342;2023-04-29T06:44:40;4.93;;;3.60;;
2850;SDS011;1433;49.976;8.342;2023-04-29T06:47:14;6.83;;;4.17;;
2850;SDS011;1433;49.976;8.342;2023-04-29T06:50:00;3.83;;;3.27;;
2850;SDS011;1433;49.976;8.342;2023-04-29T06:52:27;5.27;;;4.10;;
2850;SDS011;1433;49.976;8.342;2023-04-29T06:54:54;5.13;;;3.60;;
2850;SDS011;1433;49.976;8.342;2023-04-29T06:57:20;6.93;;;3.30;;
2850;SDS011;1433;49.976;8.342;2023-04-29T06:59:46;5.50;;;3.10;;
2850;SDS011;1433;49.976;8.342;2023-04-29T07:02:13;5.10;;;3.63;;
2850;SDS011;1433;49.976;8.342;2023-04-29T07:04:39;4.80;;;4.13;;
2850;SDS011;1433;49.976;8.342;2023-04-29T07:07:06;4.70;;;3.83;;
2850;SDS011;1433;49.976;8.342;2023-04-29T07:09:33;5.33;;;3.67;;
2850;SDS011;1433;49.976;8.342;2023-04-29T07:12:00;3.30;;;3.00;;
2850;SDS011;1433;49.976;8.342;2023-04-29T07:14:27;4.00;;;3.60;;
2850;SDS011;1433;49.976;8.342;2023-04-29T07:16:53;4.37;;;3.97;;
2850;SDS011;1433;49.976;8.342;2023-04-29T07:19:20;5.10;;;4.17;;
2850;SDS011;1433;49.976;8.342;2023-04-29T07:21:47;5.90;;;4.10;;
2850;SDS011;1433;49.976;8.342;2023-04-29T07:24:13;5.57;;;4.00;;
2850;SDS011;1433;49.976;8.342;2023-04-29T07:26:41;5.40;;;4.20;;
2850;SDS011;1433;49.976;8.342;2023-04-29T07:29:08;4.17;;;3.37;;
2850;SDS011;1433;49.976;8.342;2023-04-29T07:31:34;6.50;;;4.40;;
2850;SDS011;1433;49.976;8.342;2023-04-29T07:34:02;4.80;;;3.77;;
2850;SDS011;1433;49.976;8.342;2023-04-29T07:36:28;3.77;;;3.47;;
2850;SDS011;1433;49.976;8.342;2023-04-29T07:38:56;4.80;;;3.80;;
2850;SDS011;1433;49.976;8.342;2023-04-29T07:41:22;5.47;;;4.57;;
2850;SDS011;1433;49.976;8.342;2023-04-29T07:43:48;5.73;;;4.33;;
2850;SDS011;1433;49.976;8.342;2023-04-29T07:46:14;7.20;;;5.13;;
2850;SDS011;1433;49.976;8.342;2023-04-29T07:48:42;5.53;;;4.17;;
2850;SDS011;1433;49.976;8.342;2023-04-29T07:51:13;4.10;;;3.73;;
2850;SDS011;1433;49.976;8.342;2023-04-29T07:53:41;4.60;;;3.90;;
2850;SDS011;1433;49.976;8.342;2023-04-29T07:56:08;5.00;;;4.00;;
2850;SDS011;1433;49.976;8.342;2023-04-29T07:58:34;7.20;;;4.60;;
2850;SDS011;1433;49.976;8.342;2023-04-29T08:01:04;4.83;;;3.93;;
2850;SDS011;1433;49.976;8.342;2023-04-29T08:03:31;6.50;;;4.20;;
2850;SDS011;1433;49.976;8.342;2023-04-29T08:06:00;4.73;;;4.00;;
2850;SDS011;1433;49.976;8.342;2023-04-29T08:08:26;5.77;;;4.47;;
2850;SDS011;1433;49.976;8.342;2023-04-29T08:10:53;6.57;;;3.97;;
2850;SDS011;1433;49.976;8.342;2023-04-29T08:13:19;5.70;;;3.83;;
2850;SDS011;1433;49.976;8.342;2023-04-29T08:15:45;4.83;;;4.20;;
2850;SDS011;1433;49.976;8.342;2023-04-29T08:18:11;5.03;;;4.30;;
2850;SDS011;1433;49.976;8.342;2023-04-29T08:20:38;6.17;;;5.57;;
2850;SDS011;1433;49.976;8.342;2023-04-29T08:23:05;5.93;;;3.90;;
2850;SDS011;1433;49.976;8.342;2023-04-29T08:25:31;4.80;;;4.30;;
2850;SDS011;1433;49.976;8.342;2023-04-29T08:27:57;6.20;;;4.80;;
2850;SDS011;1433;49.976;8.342;2023-04-29T08:30:23;8.23;;;6.57;;
2850;SDS011;1433;49.976;8.342;2023-04-29T08:32:49;6.80;;;4.17;;
2850;SDS011;1433;49.976;8.342;2023-04-29T08:35:15;6.13;;;4.60;;
2850;SDS011;1433;49.976;8.342;2023-04-29T08:37:42;5.50;;;4.87;;
2850;SDS011;1433;49.976;8.342;2023-04-29T08:40:08;5.07;;;4.60;;
2850;SDS011;1433;49.976;8.342;2023-04-29T08:42:35;5.37;;;4.77;;
2850;SDS011;1433;49.976;8.342;2023-04-29T08:45:02;5.40;;;4.00;;
2850;SDS011;1433;49.976;8.342;2023-04-29T08:47:31;4.83;;;4.10;;
2850;SDS011;1433;49.976;8.342;2023-04-29T08:50:01;6.90;;;5.20;;
2850;SDS011;1433;49.976;8.342;2023-04-29T08:52:33;5.83;;;5.07;;
2850;SDS011;1433;49.976;8.342;2023-04-29T08:55:02;4.30;;;3.80;;
2850;SDS011;1433;49.976;8.342;2023-04-29T08:57:30;5.60;;;4.90;;
2850;SDS011;1433;49.976;8.342;2023-04-29T09:00:01;5.80;;;3.97;;
2850;SDS011;1433;49.976;8.342;2023-04-29T09:02:28;7.60;;;4.17;;
2850;SDS011;1433;49.976;8.342;2023-04-29T09:07:24;5.03;;;3.67;;
2850;SDS011;1433;49.976;8.342;2023-04-29T09:09:52;5.83;;;4.30;;
2850;SDS011;1433;49.976;8.342;2023-04-29T09:12:19;7.00;;;4.87;;
2850;SDS011;1433;49.976;8.342;2023-04-29T09:14:46;5.80;;;4.87;;
2850;SDS011;1433;49.976;8.342;2023-04-29T09:17:12;12.83;;;4.50;;
2850;SDS011;1433;49.976;8.342;2023-04-29T09:19:41;4.77;;;4.23;;
2850;SDS011;1433;49.976;8.342;2023-04-29T09:22:09;5.07;;;4.57;;
2850;SDS011;1433;49.976;8.342;2023-04-29T09:24:36;5.97;;;3.67;;
2850;SDS011;1433;49.976;8.342;2023-04-29T09:27:03;6.00;;;4.60;;
2850;SDS011;1433;49.976;8.342;2023-04-29T09:29:30;4.53;;;3.17;;
2850;SDS011;1433;49.976;8.342;2023-04-29T09:31:57;5.97;;;4.20;;
2850;SDS011;1433;49.976;8.342;2023-04-29T09:34:32;5.03;;;3.73;;
2850;SDS011;1433;49.976;8.342;2023-04-29T09:37:24;4.20;;;3.70;;
2850;SDS011;1433;49.976;8.342;2023-04-29T09:39:52;3.97;;;3.53;;
2850;SDS011;1433;49.976;8.342;2023-04-29T09:42:19;5.77;;;3.70;;
2850;SDS011;1433;49.976;8.342;2023-04-29T09:44:45;3.37;;;3.03;;
2850;SDS011;1433;49.976;8.342;2023-04-29T09:47:12;4.77;;;3.50;;
2850;SDS011;1433;49.976;8.342;2023-04-29T09:49:43;4.63;;;3.67;;
2850;SDS011;1433;49.976;8.342;2023-04-29T09:52:08;4.27;;;3.27;;
2850;SDS011;1433;49.976;8.342;2023-04-29T09:54:36;3.87;;;3.47;;
2850;SDS011;1433;49.976;8.342;2023-04-29T09:57:03;2.87;;;2.60;;
2850;SDS011;1433;49.976;8.342;2023-04-29T09:59:31;4.00;;;2.83;;
2850;SDS011;1433;49.976;8.342;2023-04-29T10:02:05;5.37;;;3.77;;
2850;SDS011;1433;49.976;8.342;2023-04-29T10:04:34;3.00;;;2.80;;
2850;SDS011;1433;49.976;8.342;2023-04-29T10:07:02;3.23;;;2.70;;
2850;SDS011;1433;49.976;8.342;2023-04-29T10:09:28;3.90;;;2.83;;
2850;SDS011;1433;49.976;8.342;2023-04-29T10:11:56;3.53;;;3.00;;
2850;SDS011;1433;49.976;8.342;2023-04-29T10:14:22;3.33;;;2.77;;
2850;SDS011;1433;49.976;8.342;2023-04-29T10:16:58;3.63;;;2.70;;
2850;SDS011;1433;49.976;8.342;2023-04-29T10:19:33;6.00;;;4.00;;
2850;SDS011;1433;49.976;8.342;2023-04-29T10:22:06;5.03;;;4.27;;
2850;SDS011;1433;49.976;8.342;2023-04-29T10:24:34;3.80;;;3.03;;
2850;SDS011;1433;49.976;8.342;2023-04-29T10:27:02;3.50;;;2.70;;
2850;SDS011;1433;49.976;8.342;2023-04-29T10:29:32;2.77;;;2.47;;
2850;SDS011;1433;49.976;8.342;2023-04-29T10:32:02;2.63;;;2.13;;
2850;SDS011;1433;49.976;8.342;2023-04-29T10:34:29;4.70;;;3.40;;
2850;SDS011;1433;49.976;8.342;2023-04-29T10:36:58;3.10;;;2.90;;
2850;SDS011;1433;49.976;8.342;2023-04-29T10:39:35;3.23;;;2.73;;
2850;SDS011;1433;49.976;8.342;2023-04-29T10:42:14;3.80;;;3.00;;
2850;SDS011;1433;49.976;8.342;2023-04-29T10:50:31;3.60;;;2.43;;
2850;SDS011;1433;49.976;8.342;2023-04-29T10:53:03;3.60;;;2.60;;
2850;SDS011;1433;49.976;8.342;2023-04-29T10:55:27;3.00;;;2.47;;
2850;SDS011;1433;49.976;8.342;2023-04-29T10:57:53;3.80;;;2.97;;
2850;SDS011;1433;49.976;8.342;2023-04-29T11:00:26;3.07;;;2.83;;
2850;SDS011;1433;49.976;8.342;2023-04-29T11:02:54;2.70;;;2.10;;
2850;SDS011;1433;49.976;8.342;2023-04-29T11:05:30;4.10;;;2.70;;
2850;SDS011;1433;49.976;8.342;2023-04-29T11:08:14;3.07;;;2.50;;
2850;SDS011;1433;49.976;8.342;2023-04-29T11:10:51;2.30;;;2.10;;
2850;SDS011;1433;49.976;8.342;2023-04-29T11:13:25;1.90;;;1.70;;
2850;SDS011;1433;49.976;8.342;2023-04-29T11:16:11;2.70;;;2.33;;
2850;SDS011;1433;49.976;8.342;2023-04-29T11:21:29;2.00;;;1.80;;
2850;SDS011;1433;49.976;8.342;2023-04-29T11:23:57;2.10;;;1.70;;
2850;SDS011;1433;49.976;8.342;2023-04-29T11:26:24;2.43;;;1.70;;
2850;SDS011;1433;49.976;8.342;2023-04-29T11:28:50;2.73;;;1.93;;
2850;SDS011;1433;49.976;8.342;2023-04-29T11:31:18;2.97;;;1.53;;
2850;SDS011;1433;49.976;8.342;2023-04-29T11:33:45;3.70;;;2.03;;
2850;SDS011;1433;49.976;8.342;2023-04-29T11:36:11;3.77;;;2.40;;
2850;SDS011;1433;49.976;8.342;2023-04-29T11:38:39;2.70;;;2.17;;
2850;SDS011;1433;49.976;8.342;2023-04-29T11:41:10;2.07;;;1.60;;
2850;SDS011;1433;49.976;8.342;2023-04-29T11:43:36;1.80;;;1.60;;
2850;SDS011;1433;49.976;8.342;2023-04-29T11:46:10;2.33;;;2.13;;
2850;SDS011;1433;49.976;8.342;2023-04-29T11:48:45;3.53;;;2.50;;
2850;SDS011;1433;49.976;8.342;2023-04-29T11:51:13;2.17;;;2.00;;
2850;SDS011;1433;49.976;8.342;2023-04-29T11:53:40;2.93;;;2.57;;
2850;SDS011;1433;49.976;8.342;2023-04-29T11:56:10;2.23;;;2.00;;
2850;SDS011;1433;49.976;8.342;2023-04-29T11:58:37;2.80;;;2.10;;
2850;SDS011;1433;49.976;8.342;2023-04-29T12:01:04;2.73;;;2.53;;
2850;SDS011;1433;49.976;8.342;2023-04-29T12:03:32;2.70;;;2.43;;
2850;SDS011;1433;49.976;8.342;2023-04-29T12:05:58;2.73;;;2.23;;
2850;SDS011;1433;49.976;8.342;2023-04-29T12:08:26;1.73;;;1.63;;
2850;SDS011;1433;49.976;8.342;2023-04-29T12:10:55;2.47;;;2.17;;
2850;SDS011;1433;49.976;8.342;2023-04-29T12:13:23;2.07;;;1.80;;
2850;SDS011;1433;49.976;8.342;2023-04-29T12:15:51;3.30;;;1.97;;
2850;SDS011;1433;49.976;8.342;2023-04-29T12:18:18;2.27;;;2.03;;
2850;SDS011;1433;49.976;8.342;2023-04-29T12:20:45;2.37;;;2.13;;
2850;SDS011;1433;49.976;8.342;2023-04-29T12:23:13;2.20;;;2.00;;
2850;SDS011;1433;49.976;8.342;2023-04-29T12:25:41;3.10;;;2.80;;
2850;SDS011;1433;49.976;8.342;2023-04-29T12:28:10;2.63;;;2.00;;
2850;SDS011;1433;49.976;8.342;2023-04-29T12:30:38;2.40;;;2.20;;
2850;SDS011;1433;49.976;8.342;2023-04-29T12:33:08;2.70;;;2.50;;
2850;SDS011;1433;49.976;8.342;2023-04-29T12:35:35;2.20;;;2.00;;
2850;SDS011;1433;49.976;8.342;2023-04-29T12:38:01;2.40;;;2.20;;
2850;SDS011;1433;49.976;8.342;2023-04-29T12:40:28;3.07;;;2.73;;
2850;SDS011;1433;49.976;8.342;2023-04-29T12:42:54;3.30;;;2.23;;
2850;SDS011;1433;49.976;8.342;2023-04-29T12:45:30;3.20;;;2.70;;
2850;SDS011;1433;49.976;8.342;2023-04-29T12:47:57;3.30;;;2.10;;
2850;SDS011;1433;49.976;8.342;2023-04-29T12:50:36;2.47;;;2.27;;
2850;SDS011;1433;49.976;8.342;2023-04-29T12:53:05;1.73;;;1.60;;
2850;SDS011;1433;49.976;8.342;2023-04-29T12:55:31;1.80;;;1.70;;
2850;SDS011;1433;49.976;8.342;2023-04-29T12:57:59;3.47;;;2.17;;
2850;SDS011;1433;49.976;8.342;2023-04-29T13:00:26;3.33;;;2.40;;
2850;SDS011;1433;49.976;8.342;2023-04-29T13:02:52;2.60;;;2.40;;
2850;SDS011;1433;49.976;8.342;2023-04-29T13:05:18;1.60;;;1.50;;
2850;SDS011;1433;49.976;8.342;2023-04-29T13:07:45;2.33;;;1.63;;
2850;SDS011;1433;49.976;8.342;2023-04-29T13:10:12;2.07;;;1.87;;
2850;SDS011;1433;49.976;8.342;2023-04-29T13:12:38;2.27;;;2.07;;
2850;SDS011;1433;49.976;8.342;2023-04-29T13:15:05;2.60;;;1.93;;
2850;SDS011;1433;49.976;8.342;2023-04-29T13:17:34;3.40;;;2.30;;
2850;SDS011;1433;49.976;8.342;2023-04-29T13:20:04;2.27;;;2.07;;
2850;SDS011;1433;49.976;8.342;2023-04-29T13:22:31;2.40;;;2.20;;
2850;SDS011;1433;49.976;8.342;2023-04-29T13:24:57;2.13;;;1.90;;
2850;SDS011;1433;49.976;8.342;2023-04-29T13:27:24;1.70;;;1.60;;
2850;SDS011;1433;49.976;8.342;2023-04-29T13:29:50;1.83;;;1.73;;
2850;SDS011;1433;49.976;8.342;2023-04-29T13:32:16;2.23;;;2.03;;
2850;SDS011;1433;49.976;8.342;2023-04-29T13:34:42;2.90;;;2.33;;
2850;SDS011;1433;49.976;8.342;2023-04-29T13:37:10;2.10;;;1.83;;
2850;SDS011;1433;49.976;8.342;2023-04-29T13:39:36;2.60;;;2.40;;
2850;SDS011;1433;49.976;8.342;2023-04-29T13:42:02;2.67;;;2.47;;
2850;SDS011;1433;49.976;8.342;2023-04-29T13:44:29;2.33;;;2.13;;
2850;SDS011;1433;49.976;8.342;2023-04-29T13:46:56;2.80;;;2.30;;
2850;SDS011;1433;49.976;8.342;2023-04-29T13:49:22;2.53;;;2.33;;
2850;SDS011;1433;49.976;8.342;2023-04-29T13:51:48;3.63;;;2.40;;
2850;SDS011;1433;49.976;8.342;2023-04-29T13:54:14;7.27;;;4.70;;
2850;SDS011;1433;49.976;8.342;2023-04-29T13:56:41;5.00;;;2.53;;
2850;SDS011;1433;49.976;8.342;2023-04-29T13:59:07;2.60;;;2.40;;
2850;SDS011;1433;49.976;8.342;2023-04-29T14:01:34;3.03;;;2.57;;
2850;SDS011;1433;49.976;8.342;2023-04-29T14:04:00;3.73;;;2.30;;
2850;SDS011;1433;49.976;8.342;2023-04-29T14:06:26;2.50;;;2.30;;
2850;SDS011;1433;49.976;8.342;2023-04-29T14:08:53;2.70;;;2.50;;
2850;SDS011;1433;49.976;8.342;2023-04-29T14:11:19;3.67;;;3.37;;
2850;SDS011;1433;49.976;8.342;2023-04-29T14:13:45;3.70;;;2.90;;
2850;SDS011;1433;49.976;8.342;2023-04-29T14:16:11;3.67;;;3.30;;
2850;SDS011;1433;49.976;8.342;2023-04-29T14:18:37;3.30;;;3.00;;
2850;SDS011;1433;49.976;8.342;2023-04-29T14:21:03;3.63;;;3.37;;
2850;SDS011;1433;49.976;8.342;2023-04-29T14:23:30;4.37;;;3.37;;
2850;SDS011;1433;49.976;8.342;2023-04-29T14:25:56;3.07;;;2.77;;
2850;SDS011;1433;49.976;8.342;2023-04-29T14:28:22;4.33;;;3.13;;
2850;SDS011;1433;49.976;8.342;2023-04-29T14:30:49;2.70;;;2.50;;
2850;SDS011;1433;49.976;8.342;2023-04-29T14:33:15;4.40;;;4.00;;
2850;SDS011;1433;49.976;8.342;2023-04-29T14:35:41;2.80;;;2.60;;
2850;SDS011;1433;49.976;8.342;2023-04-29T14:38:07;3.13;;;2.83;;
2850;SDS011;1433;49.976;8.342;2023-04-29T14:40:33;3.30;;;2.97;;
2850;SDS011;1433;49.976;8.342;2023-04-29T14:42:59;3.43;;;3.10;;
2850;SDS011;1433;49.976;8.342;2023-04-29T14:45:26;3.50;;;3.20;;
2850;SDS011;1433;49.976;8.342;2023-04-29T14:47:52;3.37;;;2.77;;
2850;SDS011;1433;49.976;8.342;2023-04-29T14:50:19;3.20;;;2.90;;
2850;SDS011;1433;49.976;8.342;2023-04-29T14:52:45;2.93;;;2.73;;
2850;SDS011;1433;49.976;8.342;2023-04-29T14:55:11;2.70;;;2.43;;
2850;SDS011;1433;49.976;8.342;2023-04-29T14:57:37;3.17;;;2.87;;
2850;SDS011;1433;49.976;8.342;2023-04-29T15:00:04;3.80;;;2.83;;
2850;SDS011;1433;49.976;8.342;2023-04-29T15:02:32;4.00;;;3.70;;
2850;SDS011;1433;49.976;8.342;2023-04-29T15:04:59;3.63;;;3.27;;
2850;SDS011;1433;49.976;8.342;2023-04-29T15:07:25;4.30;;;3.57;;
2850;SDS011;1433;49.976;8.342;2023-04-29T15:09:51;3.33;;;3.03;;
2850;SDS011;1433;49.976;8.342;2023-04-29T15:12:17;4.57;;;3.17;;
2850;SDS011;1433;49.976;8.342;2023-04-29T15:14:44;2.47;;;2.27;;
2850;SDS011;1433;49.976;8.342;2023-04-29T15:17:12;3.90;;;3.00;;
2850;SDS011;1433;49.976;8.342;2023-04-29T15:19:38;4.40;;;3.60;;
2850;SDS011;1433;49.976;8.342;2023-04-29T15:22:04;3.27;;;3.00;;
2850;SDS011;1433;49.976;8.342;2023-04-29T15:24:30;3.70;;;3.40;;
2850;SDS011;1433;49.976;8.342;2023-04-29T15:26:56;3.63;;;3.33;;
2850;SDS011;1433;49.976;8.342;2023-04-29T15:29:23;5.40;;;4.20;;
2850;SDS011;1433;49.976;8.342;2023-04-29T15:31:49;5.07;;;3.90;;
2850;SDS011;1433;49.976;8.342;2023-04-29T15:34:16;5.50;;;4.20;;
2850;SDS011;1433;49.976;8.342;2023-04-29T15:36:42;4.27;;;3.50;;
2850;SDS011;1433;49.976;8.342;2023-04-29T15:39:09;3.73;;;3.37;;
2850;SDS011;1433;49.976;8.342;2023-04-29T15:41:36;6.50;;;4.83;;